Decoded Metar for PAFB (FORT WAINWRIGHT in AK, USA) (IATA:FBK) | Meteo·Mobile Aviation Weather
aviador You're here:

PAFB Decoded Metar

FORT WAINWRIGHT in AK, USA
Report Time2019-02-18 09:31:00
UTC Time2019-02-18 09:52:46
Flight Rules vfr VFR
Wind280° at 03 kt
W.Decomp.*RWY 25: 3.0 kt HW 0.5 kt RCW
W.Rank280° ranks 13
Current wind is below 280° avg. (5.4)
Visibility9999 m
Phenomena:N/A
Clouds:Scattered 027 Hf
Overcast 035 Hf
Expected CloudBase > 800 ft AGL from Temp-Dew spread
Ceiling3,500 ft
Temp-6°C (ISA -20)
Dew Point-8°C (86% RH)
AAT-10.0°C
QNH1007 hPa
Density Alt-1,785 ft
Elevation449 ft
Report Wrong Elevation
Raw Report
PAFB 180931Z AUTO 28003KT 10SM SCT027 OVC035 M06/M08 A2973 RMK AO2
SNB00E21 SLP078=

Extra information for PAFB:More info

Metar Taf Metar & Taf Last 4 Metars F.Rules Stats Wind Profile Meteogram Temp Stats Airport Information Weather charts Add Link Nearby VenuesMetar ALERT Operation Metar Decoded Social comments

AIRNAV info for PAFB